Nearby METAR Reports

 

KCPC - Whiteville, North Carolina, USA
Distance from station: NNE 17mi, 28km
Updated: 08/17/2018 10:50pm
Clear
Clear
 Wind from SSW
Wind: SSW 9 mph , 15 km/h
Temperature: 81°F , 27°C
Heat Index: 87°F , 31°C
Dew Point: 75°F , 24°C
Humidity: 84%
Barometer: 30.12 inHg , 1020 hPa
Clouds: Clear
Visibility: 10 miles , 16 km
2018/08/18 02:50 KCPC 180250Z AUTO 20008KT 10SM CLR 27/24 A3012 RMK AO2 T02670241
KCRE - North Myrtle Bea, South Carolina, USA
Distance from station: SSE 19mi, 31km
Updated: 08/17/2018 10:53pm
Few Clouds
Few Clouds
 Wind from SW
Wind: SW 13 mph , 20 km/h, Gust: 24 mph , 39 km/h
Temperature: 81°F , 27°C
Heat Index: 88°F , 31°C
Dew Point: 77°F , 25°C
Humidity: 89%
Barometer: 30.13 inHg , 1020.3 hPa
Clouds: Few Clouds
Visibility: 10 miles , 16 km
Cloud details: Few Clouds 1300 ft
2018/08/18 02:53 KCRE 180253Z AUTO 22011G21KT 10SM FEW013 27/25 A3013 RMK AO1 SLP204 T02720250 51015
 
KHYW - Conway-Horry Cty, South Carolina, USA
Distance from station: SW 22mi, 35km
Updated: 08/17/2018 10:55pm
Nearby thunderstorm, Clear
Nearby thunderstorm, Clear
 Wind from SSW
Wind: SSW 8 mph , 13 km/h
Temperature: 79°F , 26°C
Dew Point: 79°F , 26°C
Humidity: 100%
Barometer: 30.14 inHg , 1020.7 hPa
Summary: Nearby Thunderstorm
Clouds: Clear
Visibility: 7 miles , 11 km
2018/08/18 02:55 KHYW 180255Z AUTO 21007KT 7SM VCTS CLR 26/26 A3014 RMK AO2 LTG DSNT N
KMAO - Marion, South Carolina, USA
Distance from station: WNW 28mi, 45km
Updated: 08/17/2018 10:55pm
Haze, Partly cloudy
Haze, Partly cloudy
 Wind from SW
Wind: SW 15 mph , 24 km/h, Gust: 21 mph , 33 km/h
Temperature: 79°F , 26°C
Dew Point: 73°F , 23°C
Humidity: 84%
Barometer: 30.14 inHg , 1020.7 hPa
Summary: Haze
Clouds: Partly cloudy
Visibility: 5 miles , 8 km
Cloud details: Partly cloudy 2200 ft
Partly cloudy 3000 ft
Partly cloudy 3700 ft
2018/08/18 02:55 KMAO 180255Z AUTO 23013G18KT 5SM HZ SCT022 SCT030 SCT037 26/23 A3014 RMK AO2
 
KMYR - Myrtle Beach, South Carolina, USA
Distance from station: S 28mi, 45km
Updated: 08/17/2018 10:56pm
Clear
Clear
 Wind from SW
Wind: SW 9 mph , 15 km/h
Temperature: 81°F , 27°C
Heat Index: 87°F , 31°C
Dew Point: 75°F , 24°C
Humidity: 84%
Barometer: 30.15 inHg , 1021 hPa
Clouds: Clear
Visibility: 10 miles , 16 km
2018/08/18 02:56 KMYR 180256Z AUTO 22008KT 10SM CLR 27/24 A3015 RMK AO2 SLP211 T02720244 51018
KLBT - Lumberton, North Carolina, USA
Distance from station: NNW 39mi, 62km
Updated: 08/17/2018 10:54pm
Clear
Clear
 Wind from S
Wind: S 9 mph , 15 km/h
Temperature: 81°F , 27°C
Heat Index: 86°F , 30°C
Dew Point: 73°F , 23°C
Humidity: 79%
Barometer: 30.10 inHg , 1019.3 hPa
Clouds: Clear
Visibility: 10 miles , 16 km
2018/08/18 02:54 KLBT 180254Z AUTO 19008KT 10SM CLR 27/23 A3010 RMK AO2 LTG DSNT SW AND W SLP190 T02670233 51015
 
KSUT - Southport, North Carolina, USA
Distance from station: E 46mi, 74km
Updated: 08/17/2018 11:00pm
Partly cloudy
Partly cloudy
 Wind from SW
Wind: SW 13 mph , 20 km/h, Gust: 25 mph , 41 km/h
Temperature: 81°F , 27°C
Heat Index: 87°F , 31°C
Dew Point: 75°F , 24°C
Humidity: 84%
Barometer: 30.13 inHg , 1020.3 hPa
Clouds: Partly cloudy
Visibility: 10 miles , 16 km
Cloud details: Partly cloudy 1300 ft
2018/08/18 03:00 KSUT 180300Z AUTO 23011G22KT 10SM SCT013 27/24 A3013 RMK AO2 T02680244
KFLO - Florence, South Carolina, USA
Distance from station: W 50mi, 81km
Updated: 08/17/2018 10:53pm
Light rain, Mostly cloudy
Light rain, Mostly cloudy
 Wind from SW
Wind: SW 7 mph , 11 km/h
Temperature: 73°F , 23°C
Dew Point: 72°F , 22°C
Humidity: 94%
Barometer: 30.14 inHg , 1020.7 hPa
Summary: Light rain
Clouds: Mostly cloudy
Visibility: 7 miles , 11 km
Cloud details: Few Clouds 4700 ft
Partly cloudy 6500 ft
Mostly cloudy 10000 ft
2018/08/18 02:53 KFLO 180253Z AUTO 22006KT 7SM -RA FEW047 SCT065 BKN100 23/22 A3014 RMK AO2 PK WND 23037/0216 WSHFT 0212 LTG DSNT NE AND E RAB0154 TSB03E52 SLP202 6//// T02330217 51018 PNO $